Stella Polaris — PEBD — position and weather

sailwx.info

Track history (hours):
 
Tides and Currents Weather Stations Pressure Air Temp Water Temp Dewpoint Dewpoint Depression Visibility Wind Speed Wind Dir Waves Ship Positions

Stella Polaris

Last reported at 2015-Jan-24 21:33 UTC. Time now 2015-Jan-30 09:32 UTC.
Position N 55°26' E 014°48'.

Length 117 m; draft 5.1 m.

Type: Ship. MMSI: 245911000.

Date/timePositionNaut miles runAvg speedWind from/ knotsBaromVisibWave heightAir tempDewpointWater temp
2015-Jan-24 21:33N 55°26' E 014°48'1413.8
2015-Jan-24 20:33N 55°18' E 014°30'4613.3
2015-Jan-24 17:05N 55°12' E 013°09'714.1
2015-Jan-24 16:33N 55°14' E 012°57'1312.7
2015-Jan-24 15:33N 55°21' E 012°38'1313.1
2015-Jan-24 14:34N 55°34' E 012°42'1111.1
2015-Jan-24 13:33N 55°45' E 012°41'1212.5
2015-Jan-24 12:33N 55°57' E 012°38'1010.4
2015-Jan-24 11:34N 56°07' E 012°31'1312.7
2015-Jan-24 10:33N 56°14' E 012°13'2512.6
2015-Jan-24 08:33N 56°37' E 011°55'1312.5
2015-Jan-24 07:33N 56°49' E 011°49'1212.6
2015-Jan-24 06:33N 57°01' E 011°41'1212.3
2015-Jan-24 05:33N 57°13' E 011°33'1212.6
2015-Jan-24 04:34N 57°24' E 011°25'1312.5
2015-Jan-24 03:33N 57°34' E 011°11'1313.0
2015-Jan-24 02:33N 57°43' E 010°53'8413.9
2015-Jan-23 20:32N 57°13' E 008°27'1414.5
2015-Jan-23 19:33N 57°02' E 008°11'19613.9
2015-Jan-23 05:30N 54°15' E 005°08'1413.8
2015-Jan-23 04:28N 54°02' E 004°56'1414.2
2015-Jan-23 03:30N 53°49' E 004°53'1313.9
2015-Jan-23 02:33N 53°36' E 004°49'1313.4
2015-Jan-23 01:33N 53°23' E 004°41'1813.1
2015-Jan-23 00:12N 53°07' E 004°28'913.3
2015-Jan-22 23:29N 52°59' E 004°20'1212.9
2015-Jan-22 22:33N 52°48' E 004°12'1312.7
2015-Jan-22 21:33N 52°39' E 003°58'3912.9
2015-Jan-22 18:30N 52°04' E 003°29'1613.5
2015-Jan-22 17:21N 51°50' E 003°18'1511.9
2015-Jan-22 16:07N 51°35' E 003°24'815.3
2015-Jan-22 15:33N 51°28' E 003°31'1212.2
2015-Jan-22 14:33N 51°21' E 003°47'3 2.7
2015-Jan-22 13:33N 51°19' E 003°49'4 4.2
2015-Jan-22 12:33N 51°15' E 003°49'3 0.1
2015-Jan-21 15:10N 51°12' E 003°48'0 0.0
2015-Jan-21 05:04N 51°12' E 003°48'0 0.0
2015-Jan-21 04:29N 51°12' E 003°48'0 0.0
2015-Jan-21 03:33N 51°12' E 003°48'5 5.0
2015-Jan-21 02:33N 51°17' E 003°50'3 2.8
2015-Jan-21 01:33N 51°20' E 003°49'4 4.5
2015-Jan-21 00:33N 51°23' E 003°43'8 8.1
2015-Jan-20 23:33N 51°27' E 003°32'1312.3
2015-Jan-20 22:32N 51°38' E 003°21'41511.8
2015-Jan-19 11:15N 57°37' E 009°19'913.0
2015-Jan-19 10:32N 57°41' E 009°34'4812.1
2015-Jan-19 06:33N 57°39' E 011°04'1413.5
2015-Jan-19 05:33N 57°30' E 011°22'1313.1
2015-Jan-19 04:33N 57°18' E 011°33'2613.1
2015-Jan-19 02:33N 56°53' E 011°49'1212.3
2015-Jan-19 01:33N 56°41' E 011°50'12512.3
2015-Jan-18 15:19N 54°39' E 011°02'1013.4
2015-Jan-18 14:33N 54°34' E 011°18'1313.2
2015-Jan-18 13:34N 54°28' E 011°39'1312.8
2015-Jan-18 12:33N 54°26' E 012°01'1211.5
2015-Jan-18 11:32N 54°35' E 012°14'5012.6
2015-Jan-18 07:33N 54°57' E 013°32'1212.0
2015-Jan-18 06:33N 55°01' E 013°51'1211.6
2015-Jan-18 05:33N 55°07' E 014°09'1212.3
2015-Jan-18 04:33N 55°17' E 014°23'1312.7
2015-Jan-18 03:33N 55°26' E 014°37'1212.2
2015-Jan-18 02:33N 55°33' E 014°56'36910.5
2015-Jan-16 15:20N 59°39' E 023°29'1211.3
2015-Jan-16 14:18N 59°42' E 023°51'8011.1
2015-Jan-16 07:06N 60°10' E 026°21'610.2
2015-Jan-16 06:33N 60°15' E 026°26'1110.6
2015-Jan-16 05:33N 60°22' E 026°42'8 7.5
2015-Jan-16 04:33N 60°26' E 026°55'0 0.0
2015-Jan-16 03:31N 60°26' E 026°55'0 0.0
2015-Jan-16 02:31N 60°26' E 026°55'0 0.0
2015-Jan-16 01:28N 60°26' E 026°55'0 0.0
2015-Jan-16 00:28N 60°26' E 026°55'0 0.0
2015-Jan-15 23:28N 60°26' E 026°55'0 0.0
2015-Jan-15 22:31N 60°26' E 026°55'0 0.0
2015-Jan-15 21:31N 60°26' E 026°55'0 0.0
2015-Jan-15 20:31N 60°26' E 026°55'0 0.0
2015-Jan-15 19:32N 60°26' E 026°55'0 0.0
2015-Jan-15 18:32N 60°26' E 026°55'0 0.0
2015-Jan-15 17:32N 60°26' E 026°55'0 0.0
2015-Jan-15 16:29N 60°26' E 026°55'0 0.0
2015-Jan-15 15:29N 60°26' E 026°55'0 0.0
2015-Jan-15 14:29N 60°26' E 026°55'0 0.0
2015-Jan-15 13:32N 60°26' E 026°55'0 0.0
2015-Jan-15 12:32N 60°26' E 026°55'0 0.0
2015-Jan-15 11:32N 60°26' E 026°55'0 0.0
2015-Jan-15 10:29N 60°26' E 026°55'0 0.0
2015-Jan-15 09:29N 60°26' E 026°55'0 0.0
2015-Jan-15 08:32N 60°26' E 026°55'0 0.0
2015-Jan-15 07:32N 60°26' E 026°55'0 0.0
2015-Jan-15 06:32N 60°26' E 026°55'0 0.0
2015-Jan-15 05:32N 60°26' E 026°55'0 0.0
2015-Jan-15 04:29N 60°26' E 026°55'0 0.0
2015-Jan-15 03:29N 60°26' E 026°55'0 0.0
2015-Jan-15 02:29N 60°26' E 026°55'0 0.0
2015-Jan-15 01:33N 60°26' E 026°55'0 0.0
2015-Jan-15 00:33N 60°26' E 026°55'0 0.0
2015-Jan-14 23:33N 60°26' E 026°55'0 0.0
2015-Jan-14 22:33N 60°26' E 026°55'3 3.4
2015-Jan-14 21:33N 60°23' E 026°50'  
Track history (hours):
 
Tides and Currents Weather Stations Pressure Air Temp Water Temp Dewpoint Dewpoint Depression Visibility Wind Speed Wind Dir Waves Ship Positions

Stella Polaris

Last reported at 2015-Jan-24 21:33 UTC. Time now 2015-Jan-30 09:32 UTC.
Position N 55°26' E 014°48'.

Length 117 m; draft 5.1 m.

Type: Ship. MMSI: 245911000.

Date/timePositionNaut miles runAvg speedWind from/ knotsBaromVisibWave heightAir tempDewpointWater temp
2015-Jan-24 21:33N 55°26' E 014°48'1413.8
2015-Jan-24 20:33N 55°18' E 014°30'4613.3
2015-Jan-24 17:05N 55°12' E 013°09'714.1
2015-Jan-24 16:33N 55°14' E 012°57'1312.7
2015-Jan-24 15:33N 55°21' E 012°38'1313.1
2015-Jan-24 14:34N 55°34' E 012°42'1111.1
2015-Jan-24 13:33N 55°45' E 012°41'1212.5
2015-Jan-24 12:33N 55°57' E 012°38'1010.4
2015-Jan-24 11:34N 56°07' E 012°31'1312.7
2015-Jan-24 10:33N 56°14' E 012°13'2512.6
2015-Jan-24 08:33N 56°37' E 011°55'1312.5
2015-Jan-24 07:33N 56°49' E 011°49'1212.6
2015-Jan-24 06:33N 57°01' E 011°41'1212.3
2015-Jan-24 05:33N 57°13' E 011°33'1212.6
2015-Jan-24 04:34N 57°24' E 011°25'1312.5
2015-Jan-24 03:33N 57°34' E 011°11'1313.0
2015-Jan-24 02:33N 57°43' E 010°53'8413.9
2015-Jan-23 20:32N 57°13' E 008°27'1414.5
2015-Jan-23 19:33N 57°02' E 008°11'19613.9
2015-Jan-23 05:30N 54°15' E 005°08'1413.8
2015-Jan-23 04:28N 54°02' E 004°56'1414.2
2015-Jan-23 03:30N 53°49' E 004°53'1313.9
2015-Jan-23 02:33N 53°36' E 004°49'1313.4
2015-Jan-23 01:33N 53°23' E 004°41'1813.1
2015-Jan-23 00:12N 53°07' E 004°28'913.3
2015-Jan-22 23:29N 52°59' E 004°20'1212.9
2015-Jan-22 22:33N 52°48' E 004°12'1312.7
2015-Jan-22 21:33N 52°39' E 003°58'3912.9
2015-Jan-22 18:30N 52°04' E 003°29'1613.5
2015-Jan-22 17:21N 51°50' E 003°18'1511.9
2015-Jan-22 16:07N 51°35' E 003°24'815.3
2015-Jan-22 15:33N 51°28' E 003°31'1212.2
2015-Jan-22 14:33N 51°21' E 003°47'3 2.7
2015-Jan-22 13:33N 51°19' E 003°49'4 4.2
2015-Jan-22 12:33N 51°15' E 003°49'3 0.1
2015-Jan-21 15:10N 51°12' E 003°48'0 0.0
2015-Jan-21 05:04N 51°12' E 003°48'0 0.0
2015-Jan-21 04:29N 51°12' E 003°48'0 0.0
2015-Jan-21 03:33N 51°12' E 003°48'5 5.0
2015-Jan-21 02:33N 51°17' E 003°50'3 2.8
2015-Jan-21 01:33N 51°20' E 003°49'4 4.5
2015-Jan-21 00:33N 51°23' E 003°43'8 8.1
2015-Jan-20 23:33N 51°27' E 003°32'1312.3
2015-Jan-20 22:32N 51°38' E 003°21'41511.8
2015-Jan-19 11:15N 57°37' E 009°19'913.0
2015-Jan-19 10:32N 57°41' E 009°34'4812.1
2015-Jan-19 06:33N 57°39' E 011°04'1413.5
2015-Jan-19 05:33N 57°30' E 011°22'1313.1
2015-Jan-19 04:33N 57°18' E 011°33'2613.1
2015-Jan-19 02:33N 56°53' E 011°49'1212.3
2015-Jan-19 01:33N 56°41' E 011°50'12512.3
2015-Jan-18 15:19N 54°39' E 011°02'1013.4
2015-Jan-18 14:33N 54°34' E 011°18'1313.2
2015-Jan-18 13:34N 54°28' E 011°39'1312.8
2015-Jan-18 12:33N 54°26' E 012°01'1211.5
2015-Jan-18 11:32N 54°35' E 012°14'5012.6
2015-Jan-18 07:33N 54°57' E 013°32'1212.0
2015-Jan-18 06:33N 55°01' E 013°51'1211.6
2015-Jan-18 05:33N 55°07' E 014°09'1212.3
2015-Jan-18 04:33N 55°17' E 014°23'1312.7
2015-Jan-18 03:33N 55°26' E 014°37'1212.2
2015-Jan-18 02:33N 55°33' E 014°56'36910.5
2015-Jan-16 15:20N 59°39' E 023°29'1211.3
2015-Jan-16 14:18N 59°42' E 023°51'8011.1
2015-Jan-16 07:06N 60°10' E 026°21'610.2
2015-Jan-16 06:33N 60°15' E 026°26'1110.6
2015-Jan-16 05:33N 60°22' E 026°42'8 7.5
2015-Jan-16 04:33N 60°26' E 026°55'0 0.0
2015-Jan-16 03:31N 60°26' E 026°55'0 0.0
2015-Jan-16 02:31N 60°26' E 026°55'0 0.0
2015-Jan-16 01:28N 60°26' E 026°55'0 0.0
2015-Jan-16 00:28N 60°26' E 026°55'0 0.0
2015-Jan-15 23:28N 60°26' E 026°55'0 0.0
2015-Jan-15 22:31N 60°26' E 026°55'0 0.0
2015-Jan-15 21:31N 60°26' E 026°55'0 0.0
2015-Jan-15 20:31N 60°26' E 026°55'0 0.0
2015-Jan-15 19:32N 60°26' E 026°55'0 0.0
2015-Jan-15 18:32N 60°26' E 026°55'0 0.0
2015-Jan-15 17:32N 60°26' E 026°55'0 0.0
2015-Jan-15 16:29N 60°26' E 026°55'0 0.0
2015-Jan-15 15:29N 60°26' E 026°55'0 0.0
2015-Jan-15 14:29N 60°26' E 026°55'0 0.0
2015-Jan-15 13:32N 60°26' E 026°55'0 0.0
2015-Jan-15 12:32N 60°26' E 026°55'0 0.0
2015-Jan-15 11:32N 60°26' E 026°55'0 0.0
2015-Jan-15 10:29N 60°26' E 026°55'0 0.0
2015-Jan-15 09:29N 60°26' E 026°55'0 0.0
2015-Jan-15 08:32N 60°26' E 026°55'0 0.0
2015-Jan-15 07:32N 60°26' E 026°55'0 0.0
2015-Jan-15 06:32N 60°26' E 026°55'0 0.0
2015-Jan-15 05:32N 60°26' E 026°55'0 0.0
2015-Jan-15 04:29N 60°26' E 026°55'0 0.0
2015-Jan-15 03:29N 60°26' E 026°55'0 0.0
2015-Jan-15 02:29N 60°26' E 026°55'0 0.0
2015-Jan-15 01:33N 60°26' E 026°55'0 0.0
2015-Jan-15 00:33N 60°26' E 026°55'0 0.0
2015-Jan-14 23:33N 60°26' E 026°55'0 0.0
2015-Jan-14 22:33N 60°26' E 026°55'3 3.4
2015-Jan-14 21:33N 60°23' E 026°50'  

Dump ship's entire track history